Weather at Miami-Opa Locka Executive Airport

Public forecast

Using degrees Fahrenheit for public forecast. Weather courtesy of forecast.io.

Current aviation weather report (METAR) for Miami-Opa Locka Executive Airport

2024/07/24 21:53 (retrieved 45 minutes ago)

KOPF 242153Z 13012KT 10SM FEW031 FEW036 32/24 A3013 RMK AO2 SLP202 T03220239

Aviation forecast (TAF) for Miami-Opa Locka Executive Airport

2024/07/24 21:54 Ammendment (retrieved 44 minutes ago)

TAF AMD KOPF 242051Z 2421/2518 11015KT P6SM SCT030 BKN040 FM250000 11010KT P6SM FEW025 SCT250 FM251300 10012KT P6SM VCSH SCT025 SCT050